KBBW/BBW METAR and TAF weather

Enter ICAO airport designator
Station Type Date Time Source
KBBW METAR 2018/12/10 18:53 UTC NOAA

KBBW 101853Z AUTO 22006KT 10SM CLR 00/M07 A3013 RMK AO2 SLP234 T00001067


Station Type Date Time Source
KBBW Decoded METAR 2018/12/10 18:53 UTC NOAA

BROKEN BOW MUNICIPAL AIRPORT, NE, United States (KBBW) 41-26N 099-38W
Dec 10, 2018 - 01:53 PM EST / 2018.12.10 1853 UTC
Wind: from the SW (220 degrees) at 7 MPH (6 KT):0
Visibility: 10 mile(s):0
Sky conditions: clear
Temperature: 32.0 F (0.0 C)
Windchill: 24 F (-4 C):1
Dew Point: 19.9 F (-6.7 C)
Relative Humidity: 60%
Pressure (altimeter): 30.13 in. Hg (1020 hPa)
ob: KBBW 101853Z AUTO 22006KT 10SM CLR 00/M07 A3013 RMK AO2 SLP234 T00001067
cycle: 19

Station Type Date Time Source
KBBW TAF UTC NOAA

Error!


Example: see airport list